Time;durP1;ratioP1;P1;durP2;ratioP2;P2;SDS_P1;SDS_P2;PMS_P1;PMS_P2;Temp;Humidity;BMP_temperature;BMP_pressure;BME280_temperature;BME280_humidity;BME280_pressure;Samples;Min_cycle;Max_cycle;Signal;HPM_P1;HPM_P2
2021/03/29 00:01:19;;;;;;;11.10;2.80;;;;;;;;;;6195598;22;20026;-76
2021/03/29 00:03:45;;;;;;;10.23;2.93;;;;;;;;;;6196693;22;20000;-76
2021/03/29 00:06:11;;;;;;;24.00;2.97;;;;;;;;;;6196727;22;20012;-76
2021/03/29 00:08:39;;;;;;;12.97;2.93;;;;;;;;;;6222728;23;20005;-76
2021/03/29 00:11:05;;;;;;;11.60;2.78;;;;;;;;;;6223219;23;20019;-76
2021/03/29 00:13:32;;;;;;;12.13;2.60;;;;;;;;;;6224707;23;20000;-77
2021/03/29 00:15:59;;;;;;;14.13;2.63;;;;;;;;;;6224277;23;20007;-77
2021/03/29 00:18:26;;;;;;;11.63;2.73;;;;;;;;;;6253566;23;20023;-76
2021/03/29 00:20:54;;;;;;;10.55;1.98;;;;;;;;;;6201581;22;20019;-77
2021/03/29 00:23:20;;;;;;;11.30;2.95;;;;;;;;;;6227244;23;20004;-77
2021/03/29 00:25:46;;;;;;;16.90;3.10;;;;;;;;;;6227804;23;20057;-78
2021/03/29 00:28:12;;;;;;;17.37;2.83;;;;;;;;;;6254020;23;19996;-77
2021/03/29 00:30:40;;;;;;;10.33;2.83;;;;;;;;;;6227491;23;20014;-77
2021/03/29 00:33:06;;;;;;;13.52;2.63;;;;;;;;;;6226230;23;20026;-77
2021/03/29 00:35:34;;;;;;;12.30;2.37;;;;;;;;;;6224577;23;20030;-77
2021/03/29 00:38:01;;;;;;;10.53;2.27;;;;;;;;;;6244618;23;20001;-76
2021/03/29 00:40:27;;;;;;;11.02;2.63;;;;;;;;;;6192117;22;20008;-76
2021/03/29 00:42:57;;;;;;;13.27;2.80;;;;;;;;;;6217429;23;20441;-76
2021/03/29 00:45:24;;;;;;;15.03;2.70;;;;;;;;;;6217693;23;20001;-77
2021/03/29 00:47:50;;;;;;;12.00;3.23;;;;;;;;;;6245245;23;20001;-76
2021/03/29 00:50:22;;;;;;;14.23;2.93;;;;;;;;;;6193258;22;20017;-76
2021/03/29 00:52:48;;;;;;;12.77;2.87;;;;;;;;;;6220260;23;20406;-77
2021/03/29 00:55:14;;;;;;;11.57;3.53;;;;;;;;;;6196400;22;20011;-76
2021/03/29 00:57:40;;;;;;;15.17;3.33;;;;;;;;;;6216973;23;20024;-76
2021/03/29 01:00:15;;;;;;;14.80;3.00;;;;;;;;;;6216214;23;20012;-77
2021/03/29 01:02:41;;;;;;;9.43;2.63;;;;;;;;;;6216754;23;20008;-76
2021/03/29 01:05:11;;;;;;;12.25;3.15;;;;;;;;;;6216172;23;20000;-77
2021/03/29 01:07:37;;;;;;;17.60;3.03;;;;;;;;;;6215544;23;20015;-76
2021/03/29 01:10:04;;;;;;;13.00;3.10;;;;;;;;;;6191099;22;20009;-77
2021/03/29 01:12:30;;;;;;;14.05;2.70;;;;;;;;;;6215979;23;20035;-76
2021/03/29 01:14:56;;;;;;;14.27;2.70;;;;;;;;;;6192092;22;20008;-77
2021/03/29 01:17:24;;;;;;;10.13;2.33;;;;;;;;;;6218440;23;20004;-76
2021/03/29 01:19:53;;;;;;;14.00;2.13;;;;;;;;;;6217580;23;20027;-76
2021/03/29 01:22:25;;;;;;;11.70;2.83;;;;;;;;;;6216903;23;20011;-76
2021/03/29 01:25:13;;;;;;;9.00;2.53;;;;;;;;;;6245289;23;20007;-76
2021/03/29 01:27:45;;;;;;;11.13;2.57;;;;;;;;;;6217026;23;20007;-77
2021/03/29 01:30:12;;;;;;;14.13;2.70;;;;;;;;;;6245428;23;20008;-76
2021/03/29 01:32:39;;;;;;;12.77;3.03;;;;;;;;;;6193917;22;20404;-76
2021/03/29 01:35:08;;;;;;;13.10;3.13;;;;;;;;;;6218814;23;20295;-76
2021/03/29 01:37:35;;;;;;;12.10;2.40;;;;;;;;;;6219444;23;20487;-77
2021/03/29 01:40:01;;;;;;;21.65;3.45;;;;;;;;;;6219895;23;20010;-76
2021/03/29 01:42:27;;;;;;;12.97;2.83;;;;;;;;;;6196735;22;20020;-76
2021/03/29 01:44:54;;;;;;;11.23;2.73;;;;;;;;;;6222350;23;20008;-76
2021/03/29 01:47:20;;;;;;;14.90;3.53;;;;;;;;;;6220156;23;20012;-77
2021/03/29 01:49:46;;;;;;;15.60;3.47;;;;;;;;;;6195166;22;20041;-76
2021/03/29 01:52:12;;;;;;;13.07;2.75;;;;;;;;;;6246483;23;20004;-77
2021/03/29 01:54:38;;;;;;;11.60;3.00;;;;;;;;;;6247202;23;20007;-75
2021/03/29 01:57:06;;;;;;;15.17;3.07;;;;;;;;;;6219730;23;20001;-76
2021/03/29 01:59:32;;;;;;;18.77;3.75;;;;;;;;;;6245825;23;20030;-76
2021/03/29 02:01:58;;;;;;;17.23;4.03;;;;;;;;;;6220454;23;20004;-76
2021/03/29 02:04:27;;;;;;;21.98;3.65;;;;;;;;;;6196773;22;20004;-76
2021/03/29 02:06:53;;;;;;;15.97;4.07;;;;;;;;;;6217376;23;20091;-75
2021/03/29 02:09:19;;;;;;;15.17;2.97;;;;;;;;;;6217855;23;20042;-76
2021/03/29 02:11:46;;;;;;;14.10;3.88;;;;;;;;;;6216906;23;20417;-76
2021/03/29 02:14:12;;;;;;;11.80;3.50;;;;;;;;;;6243783;23;20000;-76
2021/03/29 02:16:38;;;;;;;14.53;4.43;;;;;;;;;;6217518;23;20008;-75
2021/03/29 02:19:06;;;;;;;12.60;3.77;;;;;;;;;;6244212;23;20299;-77
2021/03/29 02:21:42;;;;;;;15.27;3.50;;;;;;;;;;6219255;23;20004;-77
2021/03/29 02:24:10;;;;;;;18.80;4.57;;;;;;;;;;6230644;23;20075;-77
2021/03/29 02:26:37;;;;;;;13.17;3.63;;;;;;;;;;6230218;22;20037;-76
2021/03/29 02:29:04;;;;;;;16.48;4.68;;;;;;;;;;6230257;23;20074;-77
2021/03/29 02:31:31;;;;;;;15.60;2.97;;;;;;;;;;6257904;23;20000;-76
2021/03/29 02:33:58;;;;;;;17.63;4.03;;;;;;;;;;6226831;23;20112;-76
2021/03/29 02:36:24;;;;;;;13.65;3.03;;;;;;;;;;6224837;23;20079;-75
2021/03/29 02:38:51;;;;;;;20.42;3.72;;;;;;;;;;6222190;23;20000;-75
2021/03/29 02:41:17;;;;;;;18.57;3.60;;;;;;;;;;6219111;23;20019;-75
2021/03/29 02:43:47;;;;;;;17.87;3.60;;;;;;;;;;6193899;22;20005;-75
2021/03/29 02:46:14;;;;;;;14.50;3.70;;;;;;;;;;6217422;23;20020;-76
2021/03/29 02:48:41;;;;;;;16.80;4.13;;;;;;;;;;6217203;23;20038;-75
2021/03/29 02:51:10;;;;;;;21.25;4.18;;;;;;;;;;6244019;23;20004;-75
2021/03/29 02:53:36;;;;;;;15.87;3.60;;;;;;;;;;6218479;23;20035;-75
2021/03/29 02:56:23;;;;;;;16.50;3.70;;;;;;;;;;6218155;23;20006;-75
2021/03/29 02:58:51;;;;;;;18.00;3.60;;;;;;;;;;6244829;23;20356;-74
2021/03/29 03:01:18;;;;;;;17.37;4.10;;;;;;;;;;6246902;23;20012;-75
2021/03/29 03:03:45;;;;;;;16.55;3.42;;;;;;;;;;6221462;23;20004;-74
2021/03/29 03:06:12;;;;;;;16.23;3.30;;;;;;;;;;6221374;23;20004;-75
2021/03/29 03:08:39;;;;;;;20.25;4.53;;;;;;;;;;6224207;23;20005;-75
2021/03/29 03:11:08;;;;;;;18.65;4.13;;;;;;;;;;6197758;22;20016;-76
2021/03/29 03:13:35;;;;;;;18.88;3.88;;;;;;;;;;6225490;23;20004;-75
2021/03/29 03:16:01;;;;;;;14.37;3.37;;;;;;;;;;6192271;23;20005;-75
2021/03/29 03:18:27;;;;;;;16.10;3.67;;;;;;;;;;6191965;22;20530;-74
2021/03/29 03:20:53;;;;;;;17.83;3.58;;;;;;;;;;6191924;22;20081;-74
2021/03/29 03:23:19;;;;;;;21.23;4.43;;;;;;;;;;6192488;22;20016;-75
2021/03/29 03:25:46;;;;;;;22.67;4.20;;;;;;;;;;6217132;23;20040;-76
2021/03/29 03:28:14;;;;;;;14.43;3.87;;;;;;;;;;6217117;23;20083;-74
2021/03/29 03:30:42;;;;;;;18.90;3.77;;;;;;;;;;6217596;23;20008;-75
2021/03/29 03:33:09;;;;;;;18.37;4.30;;;;;;;;;;6221454;23;20064;-75
2021/03/29 03:35:36;;;;;;;25.03;5.97;;;;;;;;;;6192721;22;20100;-75
2021/03/29 03:38:07;;;;;;;15.07;3.43;;;;;;;;;;6217531;23;20004;-75
2021/03/29 03:40:34;;;;;;;14.90;3.10;;;;;;;;;;6244417;23;20005;-75
2021/03/29 03:43:01;;;;;;;13.68;2.97;;;;;;;;;;6193882;22;20095;-74
2021/03/29 03:45:35;;;;;;;18.87;3.20;;;;;;;;;;6218817;23;20005;-75
2021/03/29 03:48:01;;;;;;;15.80;3.50;;;;;;;;;;6246430;23;20000;-75
2021/03/29 03:50:28;;;;;;;18.47;3.53;;;;;;;;;;6195862;22;20031;-75
2021/03/29 03:52:55;;;;;;;13.85;2.25;;;;;;;;;;6220921;23;20054;-75
2021/03/29 03:55:21;;;;;;;16.45;4.00;;;;;;;;;;6195366;22;20372;-75
2021/03/29 03:57:48;;;;;;;20.87;4.03;;;;;;;;;;6218825;23;20294;-75
2021/03/29 04:00:15;;;;;;;19.20;3.50;;;;;;;;;;6217453;23;20008;-75
2021/03/29 04:02:42;;;;;;;17.27;3.23;;;;;;;;;;6218004;23;20000;-74
2021/03/29 04:05:14;;;;;;;19.00;3.80;;;;;;;;;;6243741;23;20405;-74
2021/03/29 04:07:40;;;;;;;17.23;2.70;;;;;;;;;;6217397;23;20004;-75
2021/03/29 04:10:15;;;;;;;16.00;3.30;;;;;;;;;;6191713;22;20568;-74
2021/03/29 04:12:44;;;;;;;17.67;2.80;;;;;;;;;;6243776;23;19997;-74
2021/03/29 04:15:10;;;;;;;16.00;3.40;;;;;;;;;;6218623;23;20001;-75
2021/03/29 04:17:36;;;;;;;22.73;3.93;;;;;;;;;;6218246;23;20000;-75
2021/03/29 04:20:02;;;;;;;16.80;3.70;;;;;;;;;;6248132;23;20019;-76
2021/03/29 04:22:28;;;;;;;15.67;2.97;;;;;;;;;;6194512;22;20005;-75
2021/03/29 04:24:55;;;;;;;12.80;3.37;;;;;;;;;;6192005;22;20011;-76
2021/03/29 04:27:21;;;;;;;22.87;3.87;;;;;;;;;;6217039;22;20018;-75
2021/03/29 04:29:47;;;;;;;18.67;3.93;;;;;;;;;;6191356;22;20016;-75
2021/03/29 04:32:13;;;;;;;17.60;3.90;;;;;;;;;;6216319;23;20016;-75
2021/03/29 04:34:39;;;;;;;20.53;4.00;;;;;;;;;;6243371;23;19996;-74
2021/03/29 04:37:05;;;;;;;13.37;3.73;;;;;;;;;;6217157;23;20307;-76
2021/03/29 04:39:31;;;;;;;24.07;3.40;;;;;;;;;;6193073;22;20009;-76
2021/03/29 04:41:57;;;;;;;26.80;5.03;;;;;;;;;;6218206;23;20008;-75
2021/03/29 04:44:23;;;;;;;17.43;3.33;;;;;;;;;;6192569;22;20008;-76
2021/03/29 04:46:49;;;;;;;23.67;3.27;;;;;;;;;;6192261;22;20092;-75
2021/03/29 04:49:15;;;;;;;22.80;3.93;;;;;;;;;;6192182;22;20004;-76
2021/03/29 04:51:41;;;;;;;23.00;3.17;;;;;;;;;;6194379;22;20020;-76
2021/03/29 04:54:07;;;;;;;19.83;4.80;;;;;;;;;;6196772;22;20008;-76
2021/03/29 04:56:33;;;;;;;25.30;4.50;;;;;;;;;;6222169;23;20413;-75
2021/03/29 04:58:59;;;;;;;16.83;3.77;;;;;;;;;;6217900;22;20426;-76
2021/03/29 05:01:25;;;;;;;21.63;3.77;;;;;;;;;;6217734;23;20076;-75
2021/03/29 05:03:51;;;;;;;20.90;4.47;;;;;;;;;;6217999;22;20004;-76
2021/03/29 05:06:17;;;;;;;19.77;3.40;;;;;;;;;;6217326;23;20053;-76
2021/03/29 05:08:43;;;;;;;21.33;4.93;;;;;;;;;;6192988;22;20047;-75
2021/03/29 05:11:11;;;;;;;24.30;4.87;;;;;;;;;;6218501;23;20422;-76
2021/03/29 05:13:37;;;;;;;17.05;3.28;;;;;;;;;;6220118;22;20010;-75
2021/03/29 05:16:03;;;;;;;20.73;4.03;;;;;;;;;;6246738;23;20083;-75
2021/03/29 05:18:29;;;;;;;18.17;3.47;;;;;;;;;;6194924;22;20088;-77
2021/03/29 05:20:55;;;;;;;20.90;4.33;;;;;;;;;;6193252;22;20012;-75
2021/03/29 05:23:22;;;;;;;18.97;3.63;;;;;;;;;;6194702;22;20004;-75
2021/03/29 05:25:48;;;;;;;22.80;3.83;;;;;;;;;;6220972;23;20000;-75
2021/03/29 05:28:14;;;;;;;23.60;3.50;;;;;;;;;;6199508;22;20015;-75
2021/03/29 05:30:40;;;;;;;21.77;4.30;;;;;;;;;;6222232;23;20016;-74
2021/03/29 05:33:06;;;;;;;21.60;4.50;;;;;;;;;;6221420;22;20009;-76
2021/03/29 05:35:33;;;;;;;20.03;4.33;;;;;;;;;;6226323;23;20008;-76
2021/03/29 05:37:59;;;;;;;23.60;4.20;;;;;;;;;;6222293;23;20004;-76
2021/03/29 05:40:25;;;;;;;22.47;4.50;;;;;;;;;;6193256;22;20330;-74
2021/03/29 05:42:51;;;;;;;30.53;5.60;;;;;;;;;;6245275;23;20008;-75
2021/03/29 05:45:18;;;;;;;26.30;5.30;;;;;;;;;;6244769;23;20004;-74
2021/03/29 05:47:44;;;;;;;26.40;4.47;;;;;;;;;;6244263;23;20004;-74
2021/03/29 05:50:12;;;;;;;20.50;3.53;;;;;;;;;;6217539;23;20418;-75
2021/03/29 05:52:40;;;;;;;30.07;4.63;;;;;;;;;;6218057;23;20001;-75
2021/03/29 05:55:09;;;;;;;29.77;5.33;;;;;;;;;;6244961;23;20049;-75
2021/03/29 06:00:33;;;;;;;19.25;4.03;;;;;;;;;;6244724;23;20042;-76
2021/03/29 06:03:18;;;;;;;23.07;4.70;;;;;;;;;;6244894;23;20007;-75
2021/03/29 06:05:44;;;;;;;;;;;;;;;;;;6219786;23;20065;-75
2021/03/29 06:08:10;;;;;;;29.60;4.60;;;;;;;;;;6218265;22;20313;-75
2021/03/29 06:10:36;;;;;;;25.67;4.80;;;;;;;;;;6193521;22;20019;-76
2021/03/29 06:13:14;;;;;;;17.83;2.80;;;;;;;;;;6217832;23;20046;-75
2021/03/29 06:15:40;;;;;;;26.10;4.43;;;;;;;;;;6218089;23;20052;-76
2021/03/29 06:18:10;;;;;;;28.90;5.80;;;;;;;;;;6216469;23;20016;-76
2021/03/29 06:20:56;;;;;;;24.43;3.87;;;;;;;;;;6217203;23;20399;-75
2021/03/29 06:23:22;;;;;;;29.40;5.83;;;;;;;;;;6218752;23;20004;-75
2021/03/29 06:25:48;;;;;;;25.97;4.17;;;;;;;;;;6193292;22;20004;-75
2021/03/29 06:28:26;;;;;;;21.05;4.70;;;;;;;;;;6219810;23;20027;-75
2021/03/29 06:30:52;;;;;;;28.53;5.20;;;;;;;;;;6218888;23;20012;-75
2021/03/29 06:33:18;;;;;;;22.13;4.27;;;;;;;;;;6196039;22;20008;-76
2021/03/29 06:35:46;;;;;;;28.50;5.30;;;;;;;;;;6223081;23;20078;-77
2021/03/29 06:38:12;;;;;;;23.30;5.17;;;;;;;;;;6227634;23;20004;-76
2021/03/29 06:40:39;;;;;;;25.00;4.90;;;;;;;;;;6227519;23;20061;-77
2021/03/29 06:43:22;;;;;;;27.07;4.60;;;;;;;;;;6226446;23;20008;-76
2021/03/29 06:45:49;;;;;;;29.43;5.23;;;;;;;;;;6226143;23;20004;-77
2021/03/29 06:48:23;;;;;;;26.37;4.10;;;;;;;;;;6225794;23;20031;-76
2021/03/29 06:51:12;;;;;;;21.30;5.18;;;;;;;;;;6226261;23;20015;-77
2021/03/29 06:54:02;;;;;;;24.30;3.83;;;;;;;;;;6226199;23;20005;-76
2021/03/29 06:56:29;;;;;;;24.90;5.10;;;;;;;;;;6220868;23;20012;-76
2021/03/29 06:58:57;;;;;;;26.47;4.53;;;;;;;;;;6218793;23;20056;-75
2021/03/29 07:01:25;;;;;;;23.70;4.43;;;;;;;;;;6218919;23;20087;-76
2021/03/29 07:03:51;;;;;;;26.33;4.47;;;;;;;;;;6218676;23;20000;-76
2021/03/29 07:06:18;;;;;;;29.60;5.63;;;;;;;;;;6245877;23;20000;-75
2021/03/29 07:08:45;;;;;;;25.40;5.37;;;;;;;;;;6219430;23;20001;-74
2021/03/29 07:11:13;;;;;;;29.10;6.22;;;;;;;;;;6222085;23;20371;-75
2021/03/29 07:13:40;;;;;;;23.80;5.80;;;;;;;;;;6225073;23;20004;-76
2021/03/29 07:16:07;;;;;;;28.67;5.13;;;;;;;;;;6224973;23;20426;-76
2021/03/29 07:18:33;;;;;;;28.53;5.67;;;;;;;;;;6219086;23;20024;-75
2021/03/29 07:21:00;;;;;;;23.90;4.32;;;;;;;;;;6194683;22;20008;-75
2021/03/29 07:23:26;;;;;;;34.60;6.13;;;;;;;;;;6218737;23;20061;-75
2021/03/29 07:25:52;;;;;;;28.83;5.50;;;;;;;;;;6195493;22;20015;-77
2021/03/29 07:28:20;;;;;;;29.55;4.82;;;;;;;;;;6196843;22;20027;-76
2021/03/29 07:30:47;;;;;;;22.33;4.00;;;;;;;;;;6221753;23;20015;-76
2021/03/29 07:33:14;;;;;;;28.80;4.70;;;;;;;;;;6218442;23;20011;-75
2021/03/29 07:35:49;;;;;;;33.90;5.37;;;;;;;;;;6193002;22;20008;-75
2021/03/29 07:38:15;;;;;;;;;;;;;;;;;;6244962;23;20299;-75
2021/03/29 07:40:42;;;;;;;24.23;4.43;;;;;;;;;;6217714;22;19900;-74
2021/03/29 07:43:13;;;;;;;27.30;6.13;;;;;;;;;;6217810;23;20001;-75
2021/03/29 07:45:41;;;;;;;31.07;5.27;;;;;;;;;;6219711;23;20354;-76
2021/03/29 07:48:07;;;;;;;35.78;5.18;;;;;;;;;;6221047;23;20039;-75
2021/03/29 07:50:45;;;;;;;30.03;5.47;;;;;;;;;;6196607;22;20322;-75
2021/03/29 07:53:20;;;;;;;30.70;6.53;;;;;;;;;;6219302;23;20000;-75
2021/03/29 07:55:48;;;;;;;30.33;5.17;;;;;;;;;;6219288;23;20000;-75
2021/03/29 07:58:15;;;;;;;27.60;5.87;;;;;;;;;;6220572;23;20008;-75
2021/03/29 08:00:42;;;;;;;36.13;6.60;;;;;;;;;;6217537;23;20005;-75
2021/03/29 08:03:11;;;;;;;29.35;5.97;;;;;;;;;;6243768;23;20444;-75
2021/03/29 08:05:39;;;;;;;30.20;5.03;;;;;;;;;;6216807;23;20016;-75
2021/03/29 08:08:27;;;;;;;25.53;5.73;;;;;;;;;;6217383;22;20011;-76
2021/03/29 08:11:06;;;;;;;22.40;5.13;;;;;;;;;;6219280;23;20004;-77
2021/03/29 08:13:35;;;;;;;23.23;5.10;;;;;;;;;;6220769;23;20004;-76
2021/03/29 08:16:03;;;;;;;29.30;6.33;;;;;;;;;;6245046;23;19996;-75
2021/03/29 08:18:29;;;;;;;37.70;7.07;;;;;;;;;;6216759;22;20006;-75
2021/03/29 08:20:56;;;;;;;26.67;5.83;;;;;;;;;;6216180;23;20008;-75
2021/03/29 08:23:26;;;;;;;28.70;7.05;;;;;;;;;;6243002;23;20012;-74
2021/03/29 08:26:05;;;;;;;36.00;5.50;;;;;;;;;;6215408;23;20367;-74
2021/03/29 08:28:51;;;;;;;30.75;5.90;;;;;;;;;;6216070;23;20416;-74
2021/03/29 08:31:36;;;;;;;40.88;6.03;;;;;;;;;;6216087;23;20024;-74
2021/03/29 08:34:02;;;;;;;32.88;6.25;;;;;;;;;;6216527;23;20022;-75
2021/03/29 08:36:28;;;;;;;37.33;7.43;;;;;;;;;;6191778;22;20036;-75
2021/03/29 08:38:54;;;;;;;30.63;6.35;;;;;;;;;;6216629;23;20033;-75
2021/03/29 08:41:21;;;;;;;26.73;6.88;;;;;;;;;;6192873;22;20429;-76
2021/03/29 08:43:47;;;;;;;25.50;5.00;;;;;;;;;;6217177;23;20012;-75
2021/03/29 08:46:14;;;;;;;41.10;6.53;;;;;;;;;;6243959;23;20004;-74
2021/03/29 08:48:45;;;;;;;34.50;6.53;;;;;;;;;;6244416;23;19996;-75
2021/03/29 08:51:19;;;;;;;30.50;5.90;;;;;;;;;;6218750;23;20004;-76
2021/03/29 08:53:46;;;;;;;31.67;6.95;;;;;;;;;;6218333;23;20004;-76
2021/03/29 08:56:12;;;;;;;27.90;7.78;;;;;;;;;;6193477;22;20009;-76
2021/03/29 08:58:38;;;;;;;27.88;6.18;;;;;;;;;;6220349;22;20057;-76
2021/03/29 09:01:04;;;;;;;35.63;6.82;;;;;;;;;;6201288;22;20016;-76
2021/03/29 09:03:30;;;;;;;31.80;7.55;;;;;;;;;;6219357;23;20414;-76
2021/03/29 09:05:56;;;;;;;25.77;4.80;;;;;;;;;;6191312;22;20145;-75
2021/03/29 09:08:22;;;;;;;27.83;7.00;;;;;;;;;;6216132;23;20008;-77
2021/03/29 09:10:48;;;;;;;24.65;5.50;;;;;;;;;;6216157;22;20333;-76
2021/03/29 09:13:15;;;;;;;19.83;4.43;;;;;;;;;;6216300;23;20300;-75
2021/03/29 09:15:42;;;;;;;22.20;3.80;;;;;;;;;;6242370;23;19997;-75
2021/03/29 09:18:09;;;;;;;41.13;7.65;;;;;;;;;;6215776;23;20011;-75
2021/03/29 09:20:46;;;;;;;33.42;5.97;;;;;;;;;;6216131;23;20021;-75
2021/03/29 09:23:13;;;;;;;29.15;5.40;;;;;;;;;;6216105;23;20004;-75
2021/03/29 09:25:41;;;;;;;33.05;5.68;;;;;;;;;;6193246;22;20426;-76
2021/03/29 09:28:09;;;;;;;27.98;6.22;;;;;;;;;;6216814;22;20014;-77
2021/03/29 09:30:35;;;;;;;35.60;6.65;;;;;;;;;;6221338;22;20012;-75
2021/03/29 09:33:01;;;;;;;27.23;4.72;;;;;;;;;;6218259;23;20367;-75
2021/03/29 09:35:27;;;;;;;27.67;5.72;;;;;;;;;;6222724;23;20057;-76
2021/03/29 09:37:54;;;;;;;32.60;6.03;;;;;;;;;;6221289;23;20000;-75
2021/03/29 09:40:20;;;;;;;31.45;6.95;;;;;;;;;;6246220;23;20004;-75
2021/03/29 09:42:47;;;;;;;31.23;5.75;;;;;;;;;;6218810;23;20012;-75
2021/03/29 09:45:34;;;;;;;27.55;4.60;;;;;;;;;;6218563;23;20011;-76
2021/03/29 09:48:04;;;;;;;29.50;6.30;;;;;;;;;;6220504;23;20002;-76
2021/03/29 09:50:32;;;;;;;28.98;5.35;;;;;;;;;;6220430;23;20011;-76
2021/03/29 09:53:15;;;;;;;25.67;4.60;;;;;;;;;;6246058;23;20317;-76
2021/03/29 09:55:49;;;;;;;18.13;3.30;;;;;;;;;;6220635;23;20004;-76
2021/03/29 09:58:19;;;;;;;26.67;5.30;;;;;;;;;;6219335;23;20087;-76
2021/03/29 10:00:45;;;;;;;28.08;4.82;;;;;;;;;;6217938;23;20250;-75
2021/03/29 10:03:15;;;;;;;30.67;5.72;;;;;;;;;;6218279;23;20004;-75
2021/03/29 10:05:41;;;;;;;32.47;5.05;;;;;;;;;;6246951;23;20000;-75
2021/03/29 10:08:08;;;;;;;28.60;5.18;;;;;;;;;;6197558;22;20032;-76
2021/03/29 10:10:34;;;;;;;24.88;4.43;;;;;;;;;;6249747;23;20004;-76
2021/03/29 10:13:09;;;;;;;23.90;5.00;;;;;;;;;;6223343;23;20068;-76
2021/03/29 10:15:36;;;;;;;23.08;4.18;;;;;;;;;;6244218;23;20421;-76
2021/03/29 10:18:09;;;;;;;23.38;6.18;;;;;;;;;;6217375;23;19996;-75
2021/03/29 10:20:36;;;;;;;21.73;4.95;;;;;;;;;;6217428;22;20047;-75
2021/03/29 10:23:25;;;;;;;20.88;5.28;;;;;;;;;;6218169;23;20019;-76
2021/03/29 10:26:20;;;;;;;26.75;5.75;;;;;;;;;;6221205;23;20057;-76
2021/03/29 10:29:12;;;;;;;24.73;5.13;;;;;;;;;;6216479;22;20004;-76
2021/03/29 10:31:38;;;;;;;25.92;5.65;;;;;;;;;;6216818;23;20016;-76
2021/03/29 10:34:04;;;;;;;26.88;5.10;;;;;;;;;;6243139;23;20403;-75
2021/03/29 10:36:31;;;;;;;30.33;5.25;;;;;;;;;;6217623;23;20011;-75
2021/03/29 10:38:58;;;;;;;23.50;4.55;;;;;;;;;;6216896;23;20015;-76
2021/03/29 10:41:24;;;;;;;28.33;4.85;;;;;;;;;;6193216;22;20009;-76
2021/03/29 10:43:51;;;;;;;29.45;5.28;;;;;;;;;;6217350;23;20049;-76
2021/03/29 10:46:17;;;;;;;28.35;6.47;;;;;;;;;;6193598;22;20027;-75
2021/03/29 10:48:43;;;;;;;22.33;5.18;;;;;;;;;;6192074;22;20012;-75
2021/03/29 10:51:09;;;;;;;34.42;6.40;;;;;;;;;;6243677;23;20008;-77
2021/03/29 10:53:36;;;;;;;26.92;4.53;;;;;;;;;;6217448;23;20108;-76
2021/03/29 10:56:03;;;;;;;23.17;4.80;;;;;;;;;;6194933;22;20015;-77
2021/03/29 10:58:29;;;;;;;21.45;4.00;;;;;;;;;;6217691;23;20012;-77
2021/03/29 11:00:55;;;;;;;24.42;4.60;;;;;;;;;;6192627;22;20016;-77
2021/03/29 11:03:21;;;;;;;22.55;4.97;;;;;;;;;;6217104;23;20000;-77
2021/03/29 11:05:47;;;;;;;21.98;4.10;;;;;;;;;;6217753;23;20004;-76
2021/03/29 11:08:13;;;;;;;25.15;4.32;;;;;;;;;;6217247;23;20008;-78
2021/03/29 11:10:39;;;;;;;18.75;3.88;;;;;;;;;;6193115;22;20008;-76
2021/03/29 11:13:05;;;;;;;24.77;4.35;;;;;;;;;;6193171;22;20425;-78
2021/03/29 11:15:33;;;;;;;25.13;5.22;;;;;;;;;;6192807;22;20015;-78
2021/03/29 11:18:00;;;;;;;23.38;3.97;;;;;;;;;;6194194;22;20334;-79
2021/03/29 11:20:26;;;;;;;21.88;5.22;;;;;;;;;;6217425;23;20012;-77
2021/03/29 11:22:52;;;;;;;29.17;4.70;;;;;;;;;;6221161;23;20008;-77
2021/03/29 11:25:18;;;;;;;31.70;5.53;;;;;;;;;;6221833;23;20103;-78
2021/03/29 11:27:44;;;;;;;23.42;5.05;;;;;;;;;;6244005;23;20072;-77
2021/03/29 11:30:13;;;;;;;25.88;5.45;;;;;;;;;;6193049;22;20039;-76
2021/03/29 11:32:40;;;;;;;28.45;6.43;;;;;;;;;;6194313;22;20008;-77
2021/03/29 11:35:06;;;;;;;29.83;4.75;;;;;;;;;;6192811;22;20360;-76
2021/03/29 11:37:33;;;;;;;15.88;3.30;;;;;;;;;;6218081;23;20004;-77
2021/03/29 11:39:59;;;;;;;20.80;4.07;;;;;;;;;;6216598;23;20321;-78
2021/03/29 11:42:25;;;;;;;24.80;5.05;;;;;;;;;;6216199;23;20011;-76
2021/03/29 11:44:51;;;;;;;27.58;5.70;;;;;;;;;;6216573;23;20103;-76
2021/03/29 11:47:17;;;;;;;28.05;4.72;;;;;;;;;;6192197;22;20012;-78
2021/03/29 11:49:43;;;;;;;30.70;6.25;;;;;;;;;;6218180;23;20348;-77
2021/03/29 11:52:09;;;;;;;36.08;6.22;;;;;;;;;;6218828;23;20073;-77
2021/03/29 11:54:35;;;;;;;22.40;5.32;;;;;;;;;;6217698;23;20091;-76
2021/03/29 11:57:01;;;;;;;22.17;5.80;;;;;;;;;;6193267;22;20008;-77
2021/03/29 11:59:28;;;;;;;22.98;5.35;;;;;;;;;;6219379;23;20047;-76
2021/03/29 12:02:07;;;;;;;21.13;4.88;;;;;;;;;;6198100;22;20015;-77
2021/03/29 12:04:38;;;;;;;22.90;5.45;;;;;;;;;;6202296;22;20068;-77
2021/03/29 12:07:13;;;;;;;20.35;4.40;;;;;;;;;;6222604;23;20004;-77
2021/03/29 12:09:50;;;;;;;21.30;4.95;;;;;;;;;;6224448;22;20322;-75
2021/03/29 12:12:16;;;;;;;24.60;5.38;;;;;;;;;;6218182;23;20008;-76
2021/03/29 12:14:42;;;;;;;23.95;5.18;;;;;;;;;;6217367;23;20087;-76
2021/03/29 12:17:11;;;;;;;26.08;4.40;;;;;;;;;;6220550;23;20026;-76
2021/03/29 12:19:38;;;;;;;21.25;4.55;;;;;;;;;;6247771;23;20005;-76
2021/03/29 12:22:19;;;;;;;20.35;3.25;;;;;;;;;;6221265;23;20043;-76
2021/03/29 12:24:47;;;;;;;20.88;4.40;;;;;;;;;;6248275;23;20000;-76
2021/03/29 12:27:13;;;;;;;20.60;4.22;;;;;;;;;;6222828;23;20011;-77
2021/03/29 12:29:43;;;;;;;21.70;5.05;;;;;;;;;;6252649;23;19996;-77
2021/03/29 12:32:14;;;;;;;21.65;4.30;;;;;;;;;;6226021;23;20004;-77
2021/03/29 12:34:45;;;;;;;23.80;5.05;;;;;;;;;;6226796;23;20012;-77
2021/03/29 12:37:12;;;;;;;18.15;4.15;;;;;;;;;;6227484;23;20027;-77
2021/03/29 12:39:47;;;;;;;21.00;4.00;;;;;;;;;;6226911;23;20009;-78
2021/03/29 12:42:15;;;;;;;21.20;4.95;;;;;;;;;;6204513;22;20031;-77
2021/03/29 12:44:42;;;;;;;15.88;3.85;;;;;;;;;;6226109;23;20004;-77
2021/03/29 12:47:13;;;;;;;21.63;4.15;;;;;;;;;;6225216;23;20113;-77
2021/03/29 12:49:39;;;;;;;26.35;5.03;;;;;;;;;;6221017;22;20004;-76
2021/03/29 12:52:05;;;;;;;22.67;4.95;;;;;;;;;;6195943;22;20083;-76
2021/03/29 12:54:34;;;;;;;18.33;4.20;;;;;;;;;;6216636;23;20000;-76
2021/03/29 12:57:00;;;;;;;19.75;4.20;;;;;;;;;;6216060;23;20007;-76
2021/03/29 12:59:30;;;;;;;15.07;3.60;;;;;;;;;;6215974;23;20322;-76
2021/03/29 13:01:57;;;;;;;16.75;3.97;;;;;;;;;;6215703;23;20004;-76
2021/03/29 13:04:28;;;;;;;21.40;3.75;;;;;;;;;;6215840;23;20005;-77
2021/03/29 13:07:22;;;;;;;17.63;3.90;;;;;;;;;;6193971;22;20326;-75
2021/03/29 13:12:18;;;;;;;15.35;3.17;;;;;;;;;;6218264;23;20326;-75
2021/03/29 13:15:04;;;;;;;14.52;3.45;;;;;;;;;;6219126;22;20010;-76
2021/03/29 13:17:31;;;;;;;10.07;3.10;;;;;;;;;;6218289;23;20007;-76
2021/03/29 13:19:57;;;;;;;9.07;2.92;;;;;;;;;;6244969;23;20011;-78
2021/03/29 13:22:24;;;;;;;12.60;3.10;;;;;;;;;;6218983;23;20038;-76
2021/03/29 13:24:50;;;;;;;13.88;4.10;;;;;;;;;;6218841;23;20004;-75
2021/03/29 13:27:17;;;;;;;12.50;3.40;;;;;;;;;;6218352;23;20008;-76
2021/03/29 13:29:46;;;;;;;17.58;3.45;;;;;;;;;;6218845;23;20094;-75
2021/03/29 13:32:12;;;;;;;15.48;3.30;;;;;;;;;;6195287;22;20010;-76
2021/03/29 13:34:38;;;;;;;16.42;3.17;;;;;;;;;;6218963;23;20008;-76
2021/03/29 13:37:05;;;;;;;18.35;3.65;;;;;;;;;;6219449;23;20003;-75
2021/03/29 13:39:31;;;;;;;12.80;2.90;;;;;;;;;;6219389;23;20005;-76
2021/03/29 13:41:57;;;;;;;11.13;3.05;;;;;;;;;;6195262;22;20034;-76
2021/03/29 13:44:24;;;;;;;15.77;3.55;;;;;;;;;;6194852;22;20009;-75
2021/03/29 13:46:51;;;;;;;13.38;3.15;;;;;;;;;;6199602;22;20080;-76
2021/03/29 13:49:17;;;;;;;14.63;3.42;;;;;;;;;;6246864;23;19996;-77
2021/03/29 13:51:44;;;;;;;19.88;4.90;;;;;;;;;;6193999;22;20008;-75
2021/03/29 13:54:12;;;;;;;16.05;3.40;;;;;;;;;;6194537;22;20008;-74
2021/03/29 13:56:41;;;;;;;16.25;3.42;;;;;;;;;;6219916;23;20004;-76
2021/03/29 13:59:08;;;;;;;21.15;3.20;;;;;;;;;;6221075;23;20035;-74
2021/03/29 14:01:35;;;;;;;18.55;3.70;;;;;;;;;;6220248;23;20012;-74
2021/03/29 14:04:02;;;;;;;13.75;3.10;;;;;;;;;;6219612;23;20001;-75
2021/03/29 14:06:29;;;;;;;17.77;3.65;;;;;;;;;;6245587;23;20074;-74
2021/03/29 14:08:55;;;;;;;12.25;3.40;;;;;;;;;;6218436;23;20087;-75
2021/03/29 14:11:21;;;;;;;14.77;3.35;;;;;;;;;;6218879;23;20009;-75
2021/03/29 14:13:48;;;;;;;14.88;3.35;;;;;;;;;;6219533;23;20023;-75
2021/03/29 14:16:14;;;;;;;12.35;2.72;;;;;;;;;;6247268;23;20406;-76
2021/03/29 14:18:40;;;;;;;13.38;3.42;;;;;;;;;;6220859;23;20004;-75
2021/03/29 14:21:20;;;;;;;14.43;3.45;;;;;;;;;;6217001;23;20023;-77
2021/03/29 14:23:46;;;;;;;14.07;2.97;;;;;;;;;;6218478;22;20009;-76
2021/03/29 14:26:12;;;;;;;14.80;3.42;;;;;;;;;;6213042;22;20008;-76
2021/03/29 14:28:39;;;;;;;15.00;3.28;;;;;;;;;;6212778;22;20040;-77
2021/03/29 14:31:05;;;;;;;13.88;3.42;;;;;;;;;;6214003;22;20008;-76
2021/03/29 14:33:33;;;;;;;18.50;3.55;;;;;;;;;;6215450;22;20011;-76
2021/03/29 14:46:36;;;;;;;12.85;2.83;;;;;;;;;;6216692;22;20083;-77
2021/03/29 14:49:02;;;;;;;13.52;2.90;;;;;;;;;;6188810;22;20019;-76
2021/03/29 14:51:30;;;;;;;10.45;3.05;;;;;;;;;;6214637;22;20085;-76
2021/03/29 14:53:57;;;;;;;10.43;3.00;;;;;;;;;;6191019;22;20038;-77